sensor_id;sensor_type;location;lat;lon;timestamp;temperature;humidity
16347;DHT22;8283;48.504;13.734;2023-11-21T00:01:59;7.90;86.60
16347;DHT22;8283;48.504;13.734;2023-11-21T00:04:18;7.90;86.70
16347;DHT22;8283;48.504;13.734;2023-11-21T00:06:37;7.90;86.70
16347;DHT22;8283;48.504;13.734;2023-11-21T00:08:57;7.90;86.80
16347;DHT22;8283;48.504;13.734;2023-11-21T00:11:16;7.90;86.80
16347;DHT22;8283;48.504;13.734;2023-11-21T00:13:36;7.90;86.80
16347;DHT22;8283;48.504;13.734;2023-11-21T00:15:55;8.00;86.90
16347;DHT22;8283;48.504;13.734;2023-11-21T00:18:14;8.00;87.00
16347;DHT22;8283;48.504;13.734;2023-11-21T00:20:34;8.00;87.00
16347;DHT22;8283;48.504;13.734;2023-11-21T00:22:53;8.00;87.10
16347;DHT22;8283;48.504;13.734;2023-11-21T00:25:12;8.00;87.10
16347;DHT22;8283;48.504;13.734;2023-11-21T00:27:34;8.00;87.20
16347;DHT22;8283;48.504;13.734;2023-11-21T00:29:53;9.10;89.70
16347;DHT22;8283;48.504;13.734;2023-11-21T00:32:13;8.10;87.10
16347;DHT22;8283;48.504;13.734;2023-11-21T00:34:32;8.10;87.10
16347;DHT22;8283;48.504;13.734;2023-11-21T00:36:52;8.10;87.20
16347;DHT22;8283;48.504;13.734;2023-11-21T00:39:11;8.10;87.30
16347;DHT22;8283;48.504;13.734;2023-11-21T00:41:31;8.10;87.50
16347;DHT22;8283;48.504;13.734;2023-11-21T00:43:50;8.20;87.60
16347;DHT22;8283;48.504;13.734;2023-11-21T00:46:10;8.10;87.50
16347;DHT22;8283;48.504;13.734;2023-11-21T00:48:29;8.20;87.60
16347;DHT22;8283;48.504;13.734;2023-11-21T00:50:48;8.20;87.60
16347;DHT22;8283;48.504;13.734;2023-11-21T00:53:09;8.20;87.60
16347;DHT22;8283;48.504;13.734;2023-11-21T00:55:28;8.20;87.70
16347;DHT22;8283;48.504;13.734;2023-11-21T00:57:49;8.30;87.80
16347;DHT22;8283;48.504;13.734;2023-11-21T01:00:08;8.30;87.80
16347;DHT22;8283;48.504;13.734;2023-11-21T01:02:36;8.30;87.80
16347;DHT22;8283;48.504;13.734;2023-11-21T01:04:55;8.30;87.80
16347;DHT22;8283;48.504;13.734;2023-11-21T01:07:14;8.30;87.80
16347;DHT22;8283;48.504;13.734;2023-11-21T01:09:34;8.40;88.00
16347;DHT22;8283;48.504;13.734;2023-11-21T01:11:53;8.40;87.90
16347;DHT22;8283;48.504;13.734;2023-11-21T01:14:13;8.40;88.00
16347;DHT22;8283;48.504;13.734;2023-11-21T01:16:32;9.10;88.40
16347;DHT22;8283;48.504;13.734;2023-11-21T01:18:52;8.50;87.90
16347;DHT22;8283;48.504;13.734;2023-11-21T01:21:11;8.50;87.70
16347;DHT22;8283;48.504;13.734;2023-11-21T01:23:31;8.50;87.60
16347;DHT22;8283;48.504;13.734;2023-11-21T01:25:50;8.50;87.50
16347;DHT22;8283;48.504;13.734;2023-11-21T01:28:12;8.50;87.60
16347;DHT22;8283;48.504;13.734;2023-11-21T01:30:31;8.50;87.60
16347;DHT22;8283;48.504;13.734;2023-11-21T01:32:51;8.50;87.50
16347;DHT22;8283;48.504;13.734;2023-11-21T01:35:11;8.50;87.50
16347;DHT22;8283;48.504;13.734;2023-11-21T01:37:30;8.50;87.50
16347;DHT22;8283;48.504;13.734;2023-11-21T01:39:50;9.30;88.10
16347;DHT22;8283;48.504;13.734;2023-11-21T01:42:09;8.50;87.50
16347;DHT22;8283;48.504;13.734;2023-11-21T01:44:28;8.50;87.50
16347;DHT22;8283;48.504;13.734;2023-11-21T01:46:48;8.50;87.50
16347;DHT22;8283;48.504;13.734;2023-11-21T01:49:09;8.50;87.40
16347;DHT22;8283;48.504;13.734;2023-11-21T01:51:32;8.50;87.50
16347;DHT22;8283;48.504;13.734;2023-11-21T01:53:52;8.50;87.50
16347;DHT22;8283;48.504;13.734;2023-11-21T01:56:11;8.50;87.50
16347;DHT22;8283;48.504;13.734;2023-11-21T01:58:31;8.50;87.60
16347;DHT22;8283;48.504;13.734;2023-11-21T02:00:51;8.50;87.80
16347;DHT22;8283;48.504;13.734;2023-11-21T02:03:14;8.50;87.90
16347;DHT22;8283;48.504;13.734;2023-11-21T02:05:33;8.50;87.90
16347;DHT22;8283;48.504;13.734;2023-11-21T02:07:53;8.50;87.90
16347;DHT22;8283;48.504;13.734;2023-11-21T02:10:12;8.50;87.80
16347;DHT22;8283;48.504;13.734;2023-11-21T02:12:34;9.00;88.10
16347;DHT22;8283;48.504;13.734;2023-11-21T02:14:58;8.50;87.80
16347;DHT22;8283;48.504;13.734;2023-11-21T02:17:17;8.50;87.80
16347;DHT22;8283;48.504;13.734;2023-11-21T02:19:37;8.50;87.90
16347;DHT22;8283;48.504;13.734;2023-11-21T02:21:57;8.50;88.00
16347;DHT22;8283;48.504;13.734;2023-11-21T02:24:20;8.50;88.00
16347;DHT22;8283;48.504;13.734;2023-11-21T02:26:40;8.50;87.90
16347;DHT22;8283;48.504;13.734;2023-11-21T02:29:00;8.50;87.90
16347;DHT22;8283;48.504;13.734;2023-11-21T02:31:19;8.60;88.10
16347;DHT22;8283;48.504;13.734;2023-11-21T02:33:39;8.50;88.20
16347;DHT22;8283;48.504;13.734;2023-11-21T02:35:59;8.60;88.30
16347;DHT22;8283;48.504;13.734;2023-11-21T02:38:18;8.60;88.40
16347;DHT22;8283;48.504;13.734;2023-11-21T02:40:39;8.60;88.50
16347;DHT22;8283;48.504;13.734;2023-11-21T02:42:58;8.60;88.60
16347;DHT22;8283;48.504;13.734;2023-11-21T02:45:21;8.70;88.60
16347;DHT22;8283;48.504;13.734;2023-11-21T02:47:41;8.70;88.70
16347;DHT22;8283;48.504;13.734;2023-11-21T02:50:01;8.70;88.60
16347;DHT22;8283;48.504;13.734;2023-11-21T02:52:20;9.40;89.00
16347;DHT22;8283;48.504;13.734;2023-11-21T02:54:40;8.70;88.40
16347;DHT22;8283;48.504;13.734;2023-11-21T02:56:59;8.70;88.30
16347;DHT22;8283;48.504;13.734;2023-11-21T02:59:19;8.70;88.10
16347;DHT22;8283;48.504;13.734;2023-11-21T03:01:39;8.70;88.10
16347;DHT22;8283;48.504;13.734;2023-11-21T03:03:58;8.70;88.10
16347;DHT22;8283;48.504;13.734;2023-11-21T03:06:18;8.70;88.00
16347;DHT22;8283;48.504;13.734;2023-11-21T03:08:37;8.60;88.10
16347;DHT22;8283;48.504;13.734;2023-11-21T03:10:56;8.60;88.20
16347;DHT22;8283;48.504;13.734;2023-11-21T03:13:16;8.60;88.40
16347;DHT22;8283;48.504;13.734;2023-11-21T03:15:35;8.60;88.50
16347;DHT22;8283;48.504;13.734;2023-11-21T03:17:55;8.70;88.70
16347;DHT22;8283;48.504;13.734;2023-11-21T03:20:14;8.70;88.70
16347;DHT22;8283;48.504;13.734;2023-11-21T03:22:35;8.70;88.80
16347;DHT22;8283;48.504;13.734;2023-11-21T03:24:54;8.70;88.80
16347;DHT22;8283;48.504;13.734;2023-11-21T03:27:14;8.80;88.90
16347;DHT22;8283;48.504;13.734;2023-11-21T03:29:33;8.80;88.80
16347;DHT22;8283;48.504;13.734;2023-11-21T03:31:52;8.80;88.70
16347;DHT22;8283;48.504;13.734;2023-11-21T03:34:22;8.80;88.70
16347;DHT22;8283;48.504;13.734;2023-11-21T03:36:42;8.80;89.20
16347;DHT22;8283;48.504;13.734;2023-11-21T03:39:01;8.80;88.70
16347;DHT22;8283;48.504;13.734;2023-11-21T03:41:20;8.90;88.70
16347;DHT22;8283;48.504;13.734;2023-11-21T03:43:40;8.90;88.60
16347;DHT22;8283;48.504;13.734;2023-11-21T03:45:59;8.90;88.60
16347;DHT22;8283;48.504;13.734;2023-11-21T03:48:19;8.90;88.60
16347;DHT22;8283;48.504;13.734;2023-11-21T03:50:39;8.90;88.70
16347;DHT22;8283;48.504;13.734;2023-11-21T03:52:59;8.90;88.70
16347;DHT22;8283;48.504;13.734;2023-11-21T03:55:19;8.90;88.70
16347;DHT22;8283;48.504;13.734;2023-11-21T03:57:38;8.90;88.80
16347;DHT22;8283;48.504;13.734;2023-11-21T03:59:58;8.90;88.80
16347;DHT22;8283;48.504;13.734;2023-11-21T04:02:17;8.90;88.70
16347;DHT22;8283;48.504;13.734;2023-11-21T04:04:36;9.00;88.90
16347;DHT22;8283;48.504;13.734;2023-11-21T04:06:56;8.90;88.90
16347;DHT22;8283;48.504;13.734;2023-11-21T04:09:15;8.90;88.80
16347;DHT22;8283;48.504;13.734;2023-11-21T04:11:34;9.00;88.90
16347;DHT22;8283;48.504;13.734;2023-11-21T04:13:54;9.00;89.00
16347;DHT22;8283;48.504;13.734;2023-11-21T04:16:13;9.00;89.10
16347;DHT22;8283;48.504;13.734;2023-11-21T04:18:36;9.00;89.10
16347;DHT22;8283;48.504;13.734;2023-11-21T04:20:56;9.00;89.10
16347;DHT22;8283;48.504;13.734;2023-11-21T04:23:16;9.00;89.00
16347;DHT22;8283;48.504;13.734;2023-11-21T04:25:35;9.00;89.00
16347;DHT22;8283;48.504;13.734;2023-11-21T04:27:54;9.10;89.10
16347;DHT22;8283;48.504;13.734;2023-11-21T04:30:14;9.10;89.20
16347;DHT22;8283;48.504;13.734;2023-11-21T04:32:33;9.10;89.30
16347;DHT22;8283;48.504;13.734;2023-11-21T04:34:53;9.10;89.10
16347;DHT22;8283;48.504;13.734;2023-11-21T04:37:12;9.10;89.70
16347;DHT22;8283;48.504;13.734;2023-11-21T04:39:32;9.10;89.00
16347;DHT22;8283;48.504;13.734;2023-11-21T04:41:51;9.10;89.10
16347;DHT22;8283;48.504;13.734;2023-11-21T04:44:10;9.10;89.10
16347;DHT22;8283;48.504;13.734;2023-11-21T04:46:30;9.10;89.10
16347;DHT22;8283;48.504;13.734;2023-11-21T04:48:49;9.10;89.10
16347;DHT22;8283;48.504;13.734;2023-11-21T04:51:09;9.10;89.20
16347;DHT22;8283;48.504;13.734;2023-11-21T04:53:29;9.10;89.30
16347;DHT22;8283;48.504;13.734;2023-11-21T04:55:48;9.10;89.30
16347;DHT22;8283;48.504;13.734;2023-11-21T04:58:08;9.10;89.30
16347;DHT22;8283;48.504;13.734;2023-11-21T05:00:27;9.10;89.30
16347;DHT22;8283;48.504;13.734;2023-11-21T05:02:47;9.10;89.30
16347;DHT22;8283;48.504;13.734;2023-11-21T05:05:06;8.20;88.80
16347;DHT22;8283;48.504;13.734;2023-11-21T05:07:26;9.10;89.40
16347;DHT22;8283;48.504;13.734;2023-11-21T05:09:48;9.10;89.50
16347;DHT22;8283;48.504;13.734;2023-11-21T05:12:09;9.10;89.50
16347;DHT22;8283;48.504;13.734;2023-11-21T05:14:28;9.10;89.50
16347;DHT22;8283;48.504;13.734;2023-11-21T05:16:48;9.10;89.50
16347;DHT22;8283;48.504;13.734;2023-11-21T05:19:07;9.10;89.50
16347;DHT22;8283;48.504;13.734;2023-11-21T05:21:27;9.20;89.60
16347;DHT22;8283;48.504;13.734;2023-11-21T05:23:46;9.10;89.60
16347;DHT22;8283;48.504;13.734;2023-11-21T05:26:05;9.20;89.60
16347;DHT22;8283;48.504;13.734;2023-11-21T05:28:25;9.70;90.00
16347;DHT22;8283;48.504;13.734;2023-11-21T05:30:45;9.20;89.80
16347;DHT22;8283;48.504;13.734;2023-11-21T05:33:05;9.20;89.80
16347;DHT22;8283;48.504;13.734;2023-11-21T05:35:27;9.20;89.70
16347;DHT22;8283;48.504;13.734;2023-11-21T05:37:46;9.20;89.60
16347;DHT22;8283;48.504;13.734;2023-11-21T05:40:07;9.20;89.50
16347;DHT22;8283;48.504;13.734;2023-11-21T05:42:26;9.20;89.70
16347;DHT22;8283;48.504;13.734;2023-11-21T05:44:47;9.20;89.70
16347;DHT22;8283;48.504;13.734;2023-11-21T05:47:07;9.20;89.80
16347;DHT22;8283;48.504;13.734;2023-11-21T05:49:26;9.20;89.90
16347;DHT22;8283;48.504;13.734;2023-11-21T05:51:45;9.20;90.00
16347;DHT22;8283;48.504;13.734;2023-11-21T05:54:05;9.20;90.00
16347;DHT22;8283;48.504;13.734;2023-11-21T05:56:24;9.20;90.00
16347;DHT22;8283;48.504;13.734;2023-11-21T05:58:43;9.20;90.00
16347;DHT22;8283;48.504;13.734;2023-11-21T06:01:05;9.30;90.00
16347;DHT22;8283;48.504;13.734;2023-11-21T06:03:27;9.20;90.10
16347;DHT22;8283;48.504;13.734;2023-11-21T06:05:46;9.30;90.00
16347;DHT22;8283;48.504;13.734;2023-11-21T06:08:05;9.30;90.00
16347;DHT22;8283;48.504;13.734;2023-11-21T06:10:26;9.30;90.00
16347;DHT22;8283;48.504;13.734;2023-11-21T06:12:45;9.30;90.00
16347;DHT22;8283;48.504;13.734;2023-11-21T06:15:06;9.30;90.00
16347;DHT22;8283;48.504;13.734;2023-11-21T06:17:27;9.30;90.10
16347;DHT22;8283;48.504;13.734;2023-11-21T06:19:47;9.30;90.10
16347;DHT22;8283;48.504;13.734;2023-11-21T06:22:06;9.30;90.20
16347;DHT22;8283;48.504;13.734;2023-11-21T06:24:27;9.40;90.20
16347;DHT22;8283;48.504;13.734;2023-11-21T06:26:47;9.40;90.20
16347;DHT22;8283;48.504;13.734;2023-11-21T06:29:07;9.40;90.20
16347;DHT22;8283;48.504;13.734;2023-11-21T06:31:26;9.40;90.20
16347;DHT22;8283;48.504;13.734;2023-11-21T06:33:46;9.40;90.50
16347;DHT22;8283;48.504;13.734;2023-11-21T06:36:06;9.40;90.20
16347;DHT22;8283;48.504;13.734;2023-11-21T06:38:25;9.50;90.30
16347;DHT22;8283;48.504;13.734;2023-11-21T06:40:49;9.50;90.30
16347;DHT22;8283;48.504;13.734;2023-11-21T06:43:08;9.50;90.60
16347;DHT22;8283;48.504;13.734;2023-11-21T06:45:28;9.50;90.30
16347;DHT22;8283;48.504;13.734;2023-11-21T06:47:47;9.50;90.30
16347;DHT22;8283;48.504;13.734;2023-11-21T06:50:08;9.60;90.40
16347;DHT22;8283;48.504;13.734;2023-11-21T06:52:27;9.60;90.40
16347;DHT22;8283;48.504;13.734;2023-11-21T06:54:47;9.60;90.40
16347;DHT22;8283;48.504;13.734;2023-11-21T06:57:08;9.60;90.40
16347;DHT22;8283;48.504;13.734;2023-11-21T06:59:31;9.60;90.40
16347;DHT22;8283;48.504;13.734;2023-11-21T07:01:51;10.00;90.70
16347;DHT22;8283;48.504;13.734;2023-11-21T07:04:10;9.70;90.40
16347;DHT22;8283;48.504;13.734;2023-11-21T07:06:29;9.70;90.40
16347;DHT22;8283;48.504;13.734;2023-11-21T07:08:48;9.80;90.50
16347;DHT22;8283;48.504;13.734;2023-11-21T07:11:08;9.80;90.50
16347;DHT22;8283;48.504;13.734;2023-11-21T07:13:27;9.80;90.50
16347;DHT22;8283;48.504;13.734;2023-11-21T07:15:47;9.80;90.50
16347;DHT22;8283;48.504;13.734;2023-11-21T07:18:07;9.80;90.50
16347;DHT22;8283;48.504;13.734;2023-11-21T07:20:26;9.80;90.50
16347;DHT22;8283;48.504;13.734;2023-11-21T07:22:46;9.90;90.70
16347;DHT22;8283;48.504;13.734;2023-11-21T07:25:06;9.90;90.60
16347;DHT22;8283;48.504;13.734;2023-11-21T07:27:26;9.90;90.60
16347;DHT22;8283;48.504;13.734;2023-11-21T07:29:45;10.00;90.60
16347;DHT22;8283;48.504;13.734;2023-11-21T07:32:05;10.00;90.60
16347;DHT22;8283;48.504;13.734;2023-11-21T07:34:25;10.00;90.60
16347;DHT22;8283;48.504;13.734;2023-11-21T07:36:44;10.00;90.60
16347;DHT22;8283;48.504;13.734;2023-11-21T07:39:03;10.10;90.70
16347;DHT22;8283;48.504;13.734;2023-11-21T07:41:23;10.10;90.60
16347;DHT22;8283;48.504;13.734;2023-11-21T07:43:43;10.10;90.50
16347;DHT22;8283;48.504;13.734;2023-11-21T07:46:03;10.10;90.50
16347;DHT22;8283;48.504;13.734;2023-11-21T07:48:22;10.10;90.50
16347;DHT22;8283;48.504;13.734;2023-11-21T07:50:41;10.10;90.50
16347;DHT22;8283;48.504;13.734;2023-11-21T07:53:01;10.10;90.50
16347;DHT22;8283;48.504;13.734;2023-11-21T07:55:20;10.10;90.50
16347;DHT22;8283;48.504;13.734;2023-11-21T07:57:39;10.10;90.60
16347;DHT22;8283;48.504;13.734;2023-11-21T07:59:59;10.10;90.60
16347;DHT22;8283;48.504;13.734;2023-11-21T08:02:19;10.10;90.60
16347;DHT22;8283;48.504;13.734;2023-11-21T08:04:39;10.10;90.60
16347;DHT22;8283;48.504;13.734;2023-11-21T08:06:58;10.10;90.60
16347;DHT22;8283;48.504;13.734;2023-11-21T08:09:17;10.10;90.60
16347;DHT22;8283;48.504;13.734;2023-11-21T08:11:38;10.10;90.70
16347;DHT22;8283;48.504;13.734;2023-11-21T08:13:58;10.10;90.70
16347;DHT22;8283;48.504;13.734;2023-11-21T08:16:18;10.10;90.90
16347;DHT22;8283;48.504;13.734;2023-11-21T08:18:37;10.20;90.90
16347;DHT22;8283;48.504;13.734;2023-11-21T08:20:57;10.20;90.90
16347;DHT22;8283;48.504;13.734;2023-11-21T08:23:17;10.20;90.90
16347;DHT22;8283;48.504;13.734;2023-11-21T08:25:36;10.20;91.00
16347;DHT22;8283;48.504;13.734;2023-11-21T08:27:55;10.30;91.00
16347;DHT22;8283;48.504;13.734;2023-11-21T08:30:15;10.30;91.00
16347;DHT22;8283;48.504;13.734;2023-11-21T08:32:35;10.40;91.10
16347;DHT22;8283;48.504;13.734;2023-11-21T08:34:54;10.40;91.10
16347;DHT22;8283;48.504;13.734;2023-11-21T08:37:15;10.50;91.20
16347;DHT22;8283;48.504;13.734;2023-11-21T08:39:36;10.50;91.20
16347;DHT22;8283;48.504;13.734;2023-11-21T08:41:57;10.50;91.20
16347;DHT22;8283;48.504;13.734;2023-11-21T08:44:17;10.60;91.20
16347;DHT22;8283;48.504;13.734;2023-11-21T08:46:40;10.60;91.10
16347;DHT22;8283;48.504;13.734;2023-11-21T08:49:01;10.70;91.00
16347;DHT22;8283;48.504;13.734;2023-11-21T08:51:20;10.70;90.90
16347;DHT22;8283;48.504;13.734;2023-11-21T08:53:40;10.70;90.90
16347;DHT22;8283;48.504;13.734;2023-11-21T08:55:59;10.70;91.00
16347;DHT22;8283;48.504;13.734;2023-11-21T08:58:19;10.70;90.90
16347;DHT22;8283;48.504;13.734;2023-11-21T09:00:40;10.70;91.00
16347;DHT22;8283;48.504;13.734;2023-11-21T09:03:01;10.80;91.10
16347;DHT22;8283;48.504;13.734;2023-11-21T09:05:20;10.80;91.20
16347;DHT22;8283;48.504;13.734;2023-11-21T09:07:41;10.90;91.30
16347;DHT22;8283;48.504;13.734;2023-11-21T09:10:01;10.90;91.40
16347;DHT22;8283;48.504;13.734;2023-11-21T09:12:20;11.00;91.40
16347;DHT22;8283;48.504;13.734;2023-11-21T09:14:40;11.10;91.40
16347;DHT22;8283;48.504;13.734;2023-11-21T09:17:00;11.10;91.40
16347;DHT22;8283;48.504;13.734;2023-11-21T09:19:19;11.20;91.40
16347;DHT22;8283;48.504;13.734;2023-11-21T09:21:40;11.20;91.30
16347;DHT22;8283;48.504;13.734;2023-11-21T09:23:59;11.30;91.20
16347;DHT22;8283;48.504;13.734;2023-11-21T09:26:18;11.40;91.20
16347;DHT22;8283;48.504;13.734;2023-11-21T09:28:38;11.40;91.10
16347;DHT22;8283;48.504;13.734;2023-11-21T09:30:58;11.50;91.10
16347;DHT22;8283;48.504;13.734;2023-11-21T09:33:17;11.50;91.10
16347;DHT22;8283;48.504;13.734;2023-11-21T09:35:37;11.50;91.10
16347;DHT22;8283;48.504;13.734;2023-11-21T09:37:57;11.60;91.20
16347;DHT22;8283;48.504;13.734;2023-11-21T09:40:21;11.60;91.20
16347;DHT22;8283;48.504;13.734;2023-11-21T09:42:53;11.70;91.30
16347;DHT22;8283;48.504;13.734;2023-11-21T09:45:21;11.70;91.30
16347;DHT22;8283;48.504;13.734;2023-11-21T09:47:43;11.80;91.30
16347;DHT22;8283;48.504;13.734;2023-11-21T09:50:05;11.80;91.20
16347;DHT22;8283;48.504;13.734;2023-11-21T09:52:28;11.90;91.50
16347;DHT22;8283;48.504;13.734;2023-11-21T09:54:49;11.90;91.10
16347;DHT22;8283;48.504;13.734;2023-11-21T09:57:08;11.90;90.90
16347;DHT22;8283;48.504;13.734;2023-11-21T09:59:32;11.90;90.80
16347;DHT22;8283;48.504;13.734;2023-11-21T10:01:52;12.00;90.90
16347;DHT22;8283;48.504;13.734;2023-11-21T10:04:11;12.00;90.80
16347;DHT22;8283;48.504;13.734;2023-11-21T10:06:31;12.00;90.80
16347;DHT22;8283;48.504;13.734;2023-11-21T10:08:55;12.00;90.80
16347;DHT22;8283;48.504;13.734;2023-11-21T10:11:17;12.00;90.90
16347;DHT22;8283;48.504;13.734;2023-11-21T10:13:38;12.00;90.90
16347;DHT22;8283;48.504;13.734;2023-11-21T10:15:59;12.10;91.00
16347;DHT22;8283;48.504;13.734;2023-11-21T10:18:20;11.80;91.00
16347;DHT22;8283;48.504;13.734;2023-11-21T10:20:42;12.10;91.10
16347;DHT22;8283;48.504;13.734;2023-11-21T10:23:02;12.20;91.10
16347;DHT22;8283;48.504;13.734;2023-11-21T10:25:22;12.20;91.00
16347;DHT22;8283;48.504;13.734;2023-11-21T10:27:42;12.30;90.90
16347;DHT22;8283;48.504;13.734;2023-11-21T10:30:08;12.30;90.90
16347;DHT22;8283;48.504;13.734;2023-11-21T10:32:31;12.40;90.90
16347;DHT22;8283;48.504;13.734;2023-11-21T10:34:56;12.40;90.90
16347;DHT22;8283;48.504;13.734;2023-11-21T10:37:16;12.40;90.90
16347;DHT22;8283;48.504;13.734;2023-11-21T10:39:35;12.50;90.80
16347;DHT22;8283;48.504;13.734;2023-11-21T10:41:55;12.80;90.80
16347;DHT22;8283;48.504;13.734;2023-11-21T10:44:16;12.50;90.70
16347;DHT22;8283;48.504;13.734;2023-11-21T10:46:45;12.50;90.70
16347;DHT22;8283;48.504;13.734;2023-11-21T10:49:10;12.60;90.70
16347;DHT22;8283;48.504;13.734;2023-11-21T10:51:30;12.00;90.60
16347;DHT22;8283;48.504;13.734;2023-11-21T10:53:53;12.60;90.80
16347;DHT22;8283;48.504;13.734;2023-11-21T10:56:14;12.70;90.90
16347;DHT22;8283;48.504;13.734;2023-11-21T10:58:39;12.70;90.80
16347;DHT22;8283;48.504;13.734;2023-11-21T11:00:59;12.80;90.70
16347;DHT22;8283;48.504;13.734;2023-11-21T11:03:19;12.80;90.60
16347;DHT22;8283;48.504;13.734;2023-11-21T11:05:38;12.80;90.50
16347;DHT22;8283;48.504;13.734;2023-11-21T11:07:59;12.90;90.50
16347;DHT22;8283;48.504;13.734;2023-11-21T11:10:21;12.90;90.40
16347;DHT22;8283;48.504;13.734;2023-11-21T11:12:46;12.90;90.40
16347;DHT22;8283;48.504;13.734;2023-11-21T11:15:07;12.90;90.40
16347;DHT22;8283;48.504;13.734;2023-11-21T11:17:28;13.00;90.30
16347;DHT22;8283;48.504;13.734;2023-11-21T11:19:47;13.00;90.20
16347;DHT22;8283;48.504;13.734;2023-11-21T11:22:35;13.00;90.20
16347;DHT22;8283;48.504;13.734;2023-11-21T11:28:08;13.10;89.70
16347;DHT22;8283;48.504;13.734;2023-11-21T11:38:21;13.10;89.70
16347;DHT22;8283;48.504;13.734;2023-11-21T11:40:47;13.10;89.40
16347;DHT22;8283;48.504;13.734;2023-11-21T11:43:07;13.10;88.90
16347;DHT22;8283;48.504;13.734;2023-11-21T11:45:32;13.10;89.30
16347;DHT22;8283;48.504;13.734;2023-11-21T11:47:56;13.10;88.60
16347;DHT22;8283;48.504;13.734;2023-11-21T11:50:17;13.10;88.70
16347;DHT22;8283;48.504;13.734;2023-11-21T11:52:38;13.10;88.90
16347;DHT22;8283;48.504;13.734;2023-11-21T11:55:00;13.10;88.90
16347;DHT22;8283;48.504;13.734;2023-11-21T11:57:19;13.10;88.90
16347;DHT22;8283;48.504;13.734;2023-11-21T12:02:29;13.20;87.40
16347;DHT22;8283;48.504;13.734;2023-11-21T12:04:49;13.20;88.70
16347;DHT22;8283;48.504;13.734;2023-11-21T12:07:08;13.20;88.40
16347;DHT22;8283;48.504;13.734;2023-11-21T12:09:28;13.20;88.20
16347;DHT22;8283;48.504;13.734;2023-11-21T12:11:49;13.20;88.10
16347;DHT22;8283;48.504;13.734;2023-11-21T12:14:09;13.20;88.00
16347;DHT22;8283;48.504;13.734;2023-11-21T12:16:28;13.20;87.90
16347;DHT22;8283;48.504;13.734;2023-11-21T12:18:51;14.00;88.30
16347;DHT22;8283;48.504;13.734;2023-11-21T12:21:11;13.20;87.70
16347;DHT22;8283;48.504;13.734;2023-11-21T12:23:30;13.20;87.60
16347;DHT22;8283;48.504;13.734;2023-11-21T12:25:50;13.20;87.60
16347;DHT22;8283;48.504;13.734;2023-11-21T12:28:10;13.20;87.60
16347;DHT22;8283;48.504;13.734;2023-11-21T12:30:33;13.20;87.60
16347;DHT22;8283;48.504;13.734;2023-11-21T12:32:55;13.30;87.50
16347;DHT22;8283;48.504;13.734;2023-11-21T12:35:15;13.30;87.30
16347;DHT22;8283;48.504;13.734;2023-11-21T12:37:39;13.30;87.20
16347;DHT22;8283;48.504;13.734;2023-11-21T12:39:58;13.30;87.20
16347;DHT22;8283;48.504;13.734;2023-11-21T12:42:18;13.30;87.30
16347;DHT22;8283;48.504;13.734;2023-11-21T12:44:39;13.30;87.30
16347;DHT22;8283;48.504;13.734;2023-11-21T12:47:00;13.40;87.30
16347;DHT22;8283;48.504;13.734;2023-11-21T12:49:20;13.40;87.40
16347;DHT22;8283;48.504;13.734;2023-11-21T12:51:41;13.40;87.40
16347;DHT22;8283;48.504;13.734;2023-11-21T12:54:01;13.40;87.30
16347;DHT22;8283;48.504;13.734;2023-11-21T12:56:21;13.50;87.20
16347;DHT22;8283;48.504;13.734;2023-11-21T12:58:44;13.50;87.10
16347;DHT22;8283;48.504;13.734;2023-11-21T13:01:06;13.60;86.90
16347;DHT22;8283;48.504;13.734;2023-11-21T13:03:30;13.60;87.10
16347;DHT22;8283;48.504;13.734;2023-11-21T13:05:50;13.60;86.90
16347;DHT22;8283;48.504;13.734;2023-11-21T13:08:11;13.60;86.90
16347;DHT22;8283;48.504;13.734;2023-11-21T13:10:36;13.70;86.80
16347;DHT22;8283;48.504;13.734;2023-11-21T13:12:57;13.70;86.60
16347;DHT22;8283;48.504;13.734;2023-11-21T13:15:17;13.70;86.70
16347;DHT22;8283;48.504;13.734;2023-11-21T13:17:37;13.70;86.40
16347;DHT22;8283;48.504;13.734;2023-11-21T13:19:57;13.70;87.00
16347;DHT22;8283;48.504;13.734;2023-11-21T13:22:17;13.70;86.10
16347;DHT22;8283;48.504;13.734;2023-11-21T13:24:37;13.70;86.10
16347;DHT22;8283;48.504;13.734;2023-11-21T13:26:56;13.70;86.10
16347;DHT22;8283;48.504;13.734;2023-11-21T13:29:17;13.70;86.10
16347;DHT22;8283;48.504;13.734;2023-11-21T13:31:36;13.70;85.80
16347;DHT22;8283;48.504;13.734;2023-11-21T13:33:57;13.60;85.60
16347;DHT22;8283;48.504;13.734;2023-11-21T13:36:24;13.60;85.50
16347;DHT22;8283;48.504;13.734;2023-11-21T13:38:44;13.60;85.40
16347;DHT22;8283;48.504;13.734;2023-11-21T13:41:05;13.60;85.40
16347;DHT22;8283;48.504;13.734;2023-11-21T13:43:26;13.60;85.40
16347;DHT22;8283;48.504;13.734;2023-11-21T13:45:48;13.60;85.30
16347;DHT22;8283;48.504;13.734;2023-11-21T13:48:31;13.60;85.00
16347;DHT22;8283;48.504;13.734;2023-11-21T13:50:57;13.50;85.00
16347;DHT22;8283;48.504;13.734;2023-11-21T13:53:20;13.50;84.80
16347;DHT22;8283;48.504;13.734;2023-11-21T13:55:42;13.50;84.80
16347;DHT22;8283;48.504;13.734;2023-11-21T13:58:02;13.40;84.70
16347;DHT22;8283;48.504;13.734;2023-11-21T14:00:23;13.40;84.70
16347;DHT22;8283;48.504;13.734;2023-11-21T14:03:01;13.40;84.80
16347;DHT22;8283;48.504;13.734;2023-11-21T14:05:21;13.30;84.60
16347;DHT22;8283;48.504;13.734;2023-11-21T14:07:48;13.30;84.70
16347;DHT22;8283;48.504;13.734;2023-11-21T14:10:07;13.20;84.60
16347;DHT22;8283;48.504;13.734;2023-11-21T14:12:32;13.20;84.70
16347;DHT22;8283;48.504;13.734;2023-11-21T14:14:54;13.20;84.70
16347;DHT22;8283;48.504;13.734;2023-11-21T14:17:14;13.20;84.70
16347;DHT22;8283;48.504;13.734;2023-11-21T14:19:34;13.10;84.60
16347;DHT22;8283;48.504;13.734;2023-11-21T14:21:58;13.10;84.60
16347;DHT22;8283;48.504;13.734;2023-11-21T14:24:19;13.10;84.60
16347;DHT22;8283;48.504;13.734;2023-11-21T14:26:42;13.10;84.60
16347;DHT22;8283;48.504;13.734;2023-11-21T14:29:02;13.00;84.30
16347;DHT22;8283;48.504;13.734;2023-11-21T14:31:21;13.00;84.60
16347;DHT22;8283;48.504;13.734;2023-11-21T14:33:41;13.00;84.50
16347;DHT22;8283;48.504;13.734;2023-11-21T14:36:00;13.00;84.50
16347;DHT22;8283;48.504;13.734;2023-11-21T14:38:21;12.90;84.50
16347;DHT22;8283;48.504;13.734;2023-11-21T14:40:40;12.90;84.50
16347;DHT22;8283;48.504;13.734;2023-11-21T14:43:00;12.90;84.50
16347;DHT22;8283;48.504;13.734;2023-11-21T14:45:20;12.90;84.50
16347;DHT22;8283;48.504;13.734;2023-11-21T14:47:39;12.80;84.50
16347;DHT22;8283;48.504;13.734;2023-11-21T14:50:05;12.80;84.40
16347;DHT22;8283;48.504;13.734;2023-11-21T14:52:44;13.00;84.50
16347;DHT22;8283;48.504;13.734;2023-11-21T14:55:15;12.80;84.50
16347;DHT22;8283;48.504;13.734;2023-11-21T14:57:45;12.80;84.50
16347;DHT22;8283;48.504;13.734;2023-11-21T15:00:09;12.80;84.40
16347;DHT22;8283;48.504;13.734;2023-11-21T15:02:48;12.50;84.20
16347;DHT22;8283;48.504;13.734;2023-11-21T15:05:08;12.70;84.30
16347;DHT22;8283;48.504;13.734;2023-11-21T15:07:34;12.70;84.40
16347;DHT22;8283;48.504;13.734;2023-11-21T15:09:53;11.80;83.90